Terminal Aerodrome Forecast
Issued by NWS El Paso, TX

Home | Current Version | Previous Version | Text Only | Print | Product List | Glossary On
Versions: 1 2 3 4 5 6 7 8 9 10 11 12
000
FTUS44 KEPZ 181700
TAFELP
TAF
KELP 181740Z 1818/1918 11011KT P6SM FEW120 OVC250
     FM182100 16012G22KT P6SM BKN100 OVC200
     FM190100 23011KT P6SM VCTS SCT080CB BKN100 OVC200
      TEMPO 1902/1906 VRB27G40KT 6SM -TSRA BKN050CB OVC100
     FM190600 06006KT P6SM VCSH SCT050 BKN080=

USA.gov is the U.S. government's official web portal to all federal, state and local government web resources and services.